createdAt,value
2023-03-05T00:11:07.410Z,1.80
2023-03-05T00:13:34.944Z,1.80
2023-03-05T00:16:05.685Z,1.80
2023-03-05T00:18:32.476Z,1.80
2023-03-05T00:20:59.183Z,1.80
2023-03-05T00:23:26.356Z,1.80
2023-03-05T00:25:53.027Z,1.80
2023-03-05T00:28:19.860Z,1.80
2023-03-05T00:30:46.803Z,1.80
2023-03-05T00:33:18.710Z,1.90
2023-03-05T00:35:46.170Z,1.90
2023-03-05T00:38:13.114Z,1.90
2023-03-05T00:40:40.828Z,1.90
2023-03-05T00:43:08.184Z,1.90
2023-03-05T00:45:34.829Z,2.00
2023-03-05T00:48:01.866Z,1.90
2023-03-05T00:50:29.640Z,1.90
2023-03-05T00:52:56.367Z,1.90
2023-03-05T00:55:22.998Z,1.90
2023-03-05T00:57:49.770Z,1.90
2023-03-05T01:00:16.553Z,1.80
2023-03-05T01:02:43.215Z,1.80
2023-03-05T01:05:12.903Z,1.80
2023-03-05T01:07:40.274Z,1.80
2023-03-05T01:10:07.369Z,1.90
2023-03-05T01:12:34.048Z,1.90
2023-03-05T01:15:00.670Z,1.90
2023-03-05T01:17:27.316Z,1.90
2023-03-05T01:19:55.586Z,1.90
2023-03-05T01:22:22.302Z,1.90
2023-03-05T01:24:49.012Z,1.80
2023-03-05T01:27:15.640Z,1.90
2023-03-05T01:29:42.298Z,1.90
2023-03-05T01:32:09.093Z,1.90
2023-03-05T01:34:39.301Z,1.90
2023-03-05T01:37:06.035Z,1.90
2023-03-05T01:39:32.875Z,2.00
2023-03-05T01:41:59.775Z,2.00
2023-03-05T01:44:27.927Z,2.00
2023-03-05T01:46:54.685Z,2.00
2023-03-05T01:49:35.160Z,2.00
2023-03-05T01:52:08.930Z,2.00
2023-03-05T01:54:38.872Z,2.00
2023-03-05T01:57:09.208Z,1.90
2023-03-05T01:59:37.157Z,1.90
2023-03-05T02:02:13.316Z,1.80
2023-03-05T02:04:43.334Z,1.80
2023-03-05T02:07:10.996Z,1.90
2023-03-05T02:09:38.735Z,1.90
2023-03-05T02:12:05.625Z,1.90
2023-03-05T02:14:32.603Z,1.90
2023-03-05T02:16:59.714Z,1.90
2023-03-05T02:19:26.373Z,1.90
2023-03-05T02:21:53.100Z,1.90
2023-03-05T02:24:33.326Z,1.90
2023-03-05T02:27:00.302Z,1.80
2023-03-05T02:29:28.882Z,1.80
2023-03-05T02:31:55.616Z,1.70
2023-03-05T02:34:22.808Z,1.70
2023-03-05T02:36:50.370Z,1.70
2023-03-05T02:39:17.359Z,1.70
2023-03-05T02:41:44.087Z,1.70
2023-03-05T02:44:10.690Z,1.70
2023-03-05T02:46:37.400Z,1.70
2023-03-05T02:49:04.075Z,1.70
2023-03-05T02:51:30.715Z,1.70
2023-03-05T02:53:57.368Z,1.70
2023-03-05T02:56:24.052Z,1.70
2023-03-05T02:58:50.767Z,1.70
2023-03-05T03:01:17.447Z,1.60
2023-03-05T03:03:44.106Z,1.60
2023-03-05T03:06:10.746Z,1.60
2023-03-05T03:08:37.394Z,1.60
2023-03-05T03:11:08.889Z,1.60
2023-03-05T03:13:35.567Z,1.60
2023-03-05T03:16:03.591Z,1.60
2023-03-05T03:18:30.288Z,1.60
2023-03-05T03:20:56.940Z,1.60
2023-03-05T03:23:23.651Z,1.50
2023-03-05T03:25:50.266Z,1.60
2023-03-05T03:28:16.942Z,1.60
2023-03-05T03:30:43.610Z,1.60
2023-03-05T03:33:10.308Z,1.60
2023-03-05T03:35:36.975Z,1.70
2023-03-05T03:38:03.788Z,1.70
2023-03-05T03:40:30.663Z,1.70
2023-03-05T03:42:57.415Z,1.70
2023-03-05T03:45:25.205Z,1.70
2023-03-05T03:47:52.005Z,1.70
2023-03-05T03:50:18.713Z,1.70
2023-03-05T03:52:45.454Z,1.70
2023-03-05T03:55:12.160Z,1.70
2023-03-05T03:57:38.876Z,1.70
2023-03-05T04:00:10.030Z,1.70
2023-03-05T04:02:37.036Z,1.70
2023-03-05T04:05:03.770Z,1.70
2023-03-05T04:07:30.405Z,1.70
2023-03-05T04:09:57.078Z,1.70
2023-03-05T04:12:23.712Z,1.70
2023-03-05T04:14:50.342Z,1.60
2023-03-05T04:17:17.307Z,1.60
2023-03-05T04:19:43.992Z,1.60
2023-03-05T04:22:15.347Z,1.60
2023-03-05T04:24:42.124Z,1.60
2023-03-05T04:27:08.996Z,1.60
2023-03-05T04:29:35.642Z,1.60
2023-03-05T04:32:02.343Z,1.60
2023-03-05T04:34:29.049Z,1.60
2023-03-05T04:36:55.815Z,1.60
2023-03-05T04:39:22.545Z,1.60
2023-03-05T04:41:49.164Z,1.60
2023-03-05T04:44:15.855Z,1.70
2023-03-05T04:46:42.535Z,1.70
2023-03-05T04:49:09.380Z,1.70
2023-03-05T04:51:35.970Z,1.70
2023-03-05T04:54:10.782Z,1.70
2023-03-05T04:56:37.585Z,1.70
2023-03-05T04:59:04.235Z,1.70
2023-03-05T05:01:31.036Z,1.70
2023-03-05T05:03:57.743Z,1.60
2023-03-05T05:06:24.376Z,1.60
2023-03-05T05:08:50.989Z,1.60
2023-03-05T05:11:18.204Z,1.60
2023-03-05T05:13:44.843Z,1.50
2023-03-05T05:16:11.557Z,1.50
2023-03-05T05:18:38.201Z,1.40
2023-03-05T05:21:09.339Z,1.50
2023-03-05T05:23:36.308Z,1.50
2023-03-05T05:26:04.695Z,1.50
2023-03-05T05:28:31.694Z,1.60
2023-03-05T05:30:58.456Z,1.60
2023-03-05T05:33:25.138Z,1.60
2023-03-05T05:35:51.819Z,1.60
2023-03-05T05:38:18.875Z,1.60
2023-03-05T05:40:45.571Z,1.60
2023-03-05T05:43:14.366Z,1.50
2023-03-05T05:45:41.155Z,1.50
2023-03-05T05:48:07.905Z,1.60
2023-03-05T05:50:34.634Z,1.60
2023-03-05T05:53:01.318Z,1.60
2023-03-05T05:55:27.933Z,1.70
2023-03-05T05:57:54.589Z,1.70
2023-03-05T06:00:21.449Z,1.70
2023-03-05T06:02:48.196Z,1.70
2023-03-05T06:05:15.268Z,1.70
2023-03-05T06:07:42.014Z,1.70
2023-03-05T06:10:09.939Z,1.70
2023-03-05T06:12:36.628Z,1.70
2023-03-05T06:15:04.508Z,1.70
2023-03-05T06:17:31.325Z,1.70
2023-03-05T06:19:58.438Z,1.70
2023-03-05T06:22:25.215Z,1.70
2023-03-05T06:24:51.825Z,1.70
2023-03-05T06:27:18.466Z,1.70
2023-03-05T06:29:45.085Z,1.70
2023-03-05T06:32:11.840Z,1.80
2023-03-05T06:34:38.600Z,1.80
2023-03-05T06:37:05.325Z,1.80
2023-03-05T06:39:32.063Z,1.80
2023-03-05T06:41:58.728Z,1.80
2023-03-05T06:44:25.855Z,1.90
2023-03-05T06:46:52.497Z,1.90
2023-03-05T06:49:19.193Z,1.90
2023-03-05T06:51:45.888Z,1.90
2023-03-05T06:54:14.241Z,2.00
2023-03-05T06:56:42.167Z,2.00
2023-03-05T06:59:08.905Z,2.00
2023-03-05T07:01:35.724Z,2.00
2023-03-05T07:04:03.245Z,2.10
2023-03-05T07:06:32.121Z,2.10
2023-03-05T07:08:58.900Z,2.10
2023-03-05T07:11:25.561Z,2.20
2023-03-05T07:13:52.233Z,2.20
2023-03-05T07:16:23.151Z,2.20
2023-03-05T07:18:49.849Z,2.20
2023-03-05T07:21:39.598Z,2.30
2023-03-05T07:24:07.148Z,2.30
2023-03-05T07:26:33.860Z,2.40
2023-03-05T07:29:00.912Z,2.40
2023-03-05T07:31:30.917Z,2.40
2023-03-05T07:33:58.489Z,2.50
2023-03-05T07:36:25.453Z,2.50
2023-03-05T07:38:52.068Z,2.60
2023-03-05T07:41:23.542Z,2.70
2023-03-05T07:43:51.170Z,2.70
2023-03-05T07:46:19.220Z,2.70
2023-03-05T07:48:46.026Z,2.70
2023-03-05T07:51:17.111Z,2.70
2023-03-05T07:53:44.335Z,2.80
2023-03-05T07:56:11.017Z,2.80
2023-03-05T07:58:37.979Z,2.80
2023-03-05T08:01:04.797Z,2.80
2023-03-05T08:03:31.526Z,2.80
2023-03-05T08:05:58.242Z,2.90
2023-03-05T08:08:24.854Z,2.90
2023-03-05T08:10:52.619Z,2.90
2023-03-05T08:13:19.321Z,2.90
2023-03-05T08:15:46.177Z,2.90
2023-03-05T08:18:13.816Z,3.00
2023-03-05T08:20:40.462Z,3.00
2023-03-05T08:23:07.089Z,3.00
2023-03-05T08:25:33.773Z,3.10
2023-03-05T08:28:00.397Z,3.10
2023-03-05T08:30:27.541Z,3.20
2023-03-05T08:32:58.332Z,3.30
2023-03-05T08:35:25.189Z,3.50
2023-03-05T08:37:51.884Z,3.50
2023-03-05T08:40:19.364Z,3.60
2023-03-05T08:42:46.260Z,3.60
2023-03-05T08:45:13.089Z,3.50
2023-03-05T08:47:39.757Z,3.50
2023-03-05T08:50:07.043Z,3.60
2023-03-05T08:52:33.767Z,3.70
2023-03-05T08:55:00.402Z,3.70
2023-03-05T08:57:27.045Z,3.60
2023-03-05T08:59:53.674Z,3.80
2023-03-05T09:02:20.939Z,3.90
2023-03-05T09:04:47.573Z,3.90
2023-03-05T09:07:14.794Z,4.00
2023-03-05T09:09:41.401Z,4.00
2023-03-05T09:12:12.080Z,3.80
2023-03-05T09:14:41.699Z,3.80
2023-03-05T09:17:12.340Z,3.90
2023-03-05T09:19:38.990Z,4.00
2023-03-05T09:22:05.621Z,4.10
2023-03-05T09:24:32.330Z,4.10
2023-03-05T09:27:00.418Z,4.20
2023-03-05T09:29:27.596Z,4.10
2023-03-05T09:31:54.375Z,4.10
2023-03-05T09:34:21.505Z,4.10
2023-03-05T09:36:48.174Z,4.20
2023-03-05T09:39:15.287Z,4.30
2023-03-05T09:41:41.897Z,4.30
2023-03-05T09:44:18.277Z,4.40
2023-03-05T09:46:44.996Z,4.40
2023-03-05T09:49:32.589Z,4.60
2023-03-05T09:52:22.651Z,4.60
2023-03-05T09:54:52.626Z,4.60
2023-03-05T09:57:22.469Z,4.60
2023-03-05T09:59:49.052Z,4.60
2023-03-05T10:02:42.121Z,4.60
2023-03-05T10:05:20.464Z,4.70
2023-03-05T10:08:03.412Z,4.70
2023-03-05T10:10:40.039Z,4.60
2023-03-05T10:13:36.018Z,4.70
2023-03-05T10:16:02.707Z,4.80
2023-03-05T10:18:38.584Z,4.70
2023-03-05T10:21:22.053Z,4.70
2023-03-05T10:23:57.237Z,4.60
2023-03-05T10:26:46.313Z,4.70
2023-03-05T10:29:19.232Z,4.90
2023-03-05T10:32:07.094Z,4.80
2023-03-05T10:35:06.510Z,4.80
2023-03-05T10:37:44.590Z,4.90
2023-03-05T10:40:32.797Z,5.00
2023-03-05T10:43:18.284Z,5.00
2023-03-05T10:45:47.291Z,5.10
2023-03-05T10:48:21.217Z,4.90
2023-03-05T10:50:50.588Z,4.90
2023-03-05T10:53:17.297Z,4.90
2023-03-05T10:55:44.026Z,5.00
2023-03-05T10:58:14.627Z,5.00
2023-03-05T11:00:57.266Z,5.00
2023-03-05T11:03:24.061Z,5.00
2023-03-05T11:06:01.477Z,5.00
2023-03-05T11:08:28.137Z,5.00
2023-03-05T11:11:03.999Z,5.20
2023-03-05T11:13:43.692Z,5.30
2023-03-05T11:16:17.324Z,5.30
2023-03-05T11:18:46.634Z,5.40
2023-03-05T11:21:23.754Z,5.50
2023-03-05T11:24:09.364Z,5.50
2023-03-05T11:26:36.241Z,5.60
2023-03-05T11:29:04.883Z,5.60
2023-03-05T11:31:32.352Z,5.70
2023-03-05T11:34:08.415Z,5.60
2023-03-05T11:36:36.204Z,5.70
2023-03-05T11:39:05.983Z,6.00
2023-03-05T11:41:36.276Z,6.00
2023-03-05T11:44:05.828Z,6.10
2023-03-05T11:46:37.308Z,6.10
2023-03-05T11:49:05.343Z,6.20
2023-03-05T11:51:36.691Z,6.30
2023-03-05T11:54:07.576Z,6.50
2023-03-05T11:56:36.792Z,6.50
2023-03-05T11:59:20.363Z,6.50
2023-03-05T12:01:51.794Z,6.40
2023-03-05T12:04:21.375Z,6.40
2023-03-05T12:06:53.285Z,6.50
2023-03-05T12:09:23.045Z,6.60
2023-03-05T12:11:52.204Z,6.60
2023-03-05T12:14:23.235Z,6.60
2023-03-05T12:16:58.472Z,6.60
2023-03-05T12:19:28.572Z,6.80
2023-03-05T12:21:55.612Z,6.70
2023-03-05T12:24:36.411Z,6.80
2023-03-05T12:27:03.186Z,7.00
2023-03-05T12:29:32.859Z,7.30
2023-03-05T12:35:13.305Z,7.40
2023-03-05T12:38:01.807Z,7.40
2023-03-05T12:40:31.395Z,7.40
2023-03-05T12:42:59.414Z,7.20
2023-03-05T12:45:30.377Z,7.10
2023-03-05T12:47:57.565Z,7.20
2023-03-05T12:50:27.482Z,7.20
2023-03-05T12:52:54.594Z,7.10
2023-03-05T12:55:25.261Z,7.20
2023-03-05T12:58:13.369Z,7.20
2023-03-05T13:00:43.788Z,7.10
2023-03-05T13:03:25.978Z,6.90
2023-03-05T13:05:57.017Z,6.90
2023-03-05T13:08:23.628Z,7.00
2023-03-05T13:11:04.742Z,7.00
2023-03-05T13:13:35.053Z,7.30
2023-03-05T13:16:01.730Z,7.20
2023-03-05T13:18:29.672Z,7.10
2023-03-05T13:21:06.757Z,7.00
2023-03-05T13:23:34.474Z,7.40
2023-03-05T13:26:15.435Z,7.40
2023-03-05T13:28:44.338Z,7.20
2023-03-05T13:31:18.749Z,7.10
2023-03-05T13:33:54.138Z,7.10
2023-03-05T13:36:21.995Z,7.00
2023-03-05T13:38:48.656Z,7.00
2023-03-05T13:41:15.740Z,7.00
2023-03-05T13:43:56.176Z,7.00
2023-03-05T13:46:33.399Z,7.00
2023-03-05T13:49:18.354Z,6.90
2023-03-05T13:51:49.501Z,7.00
2023-03-05T13:54:16.887Z,6.90
2023-03-05T13:56:52.752Z,6.80
2023-03-05T13:59:20.531Z,6.80
2023-03-05T14:01:48.274Z,6.80
2023-03-05T14:04:15.442Z,6.90
2023-03-05T14:07:00.690Z,6.80
2023-03-05T14:09:42.714Z,6.60
2023-03-05T14:12:15.476Z,6.80
2023-03-05T14:14:43.597Z,7.00
2023-03-05T14:17:30.037Z,6.90
2023-03-05T14:20:15.654Z,6.80
2023-03-05T14:22:43.490Z,6.60
2023-03-05T14:25:25.530Z,6.70
2023-03-05T14:27:52.194Z,6.70
2023-03-05T14:30:21.691Z,6.60
2023-03-05T14:32:48.939Z,6.60
2023-03-05T14:35:19.841Z,6.60
2023-03-05T14:37:50.314Z,6.60
2023-03-05T14:40:27.238Z,6.60
2023-03-05T14:42:57.887Z,6.70
2023-03-05T14:45:25.763Z,6.60
2023-03-05T14:47:53.360Z,6.40
2023-03-05T14:50:21.823Z,6.40
2023-03-05T14:52:49.899Z,6.50
2023-03-05T14:55:17.561Z,6.40
2023-03-05T14:57:44.307Z,6.40
2023-03-05T15:00:15.532Z,6.40
2023-03-05T15:02:42.215Z,6.40
2023-03-05T15:07:40.608Z,6.30
2023-03-05T15:10:08.690Z,6.30
2023-03-05T15:12:35.408Z,6.20
2023-03-05T15:15:02.774Z,6.20
2023-03-05T15:17:33.871Z,6.10
2023-03-05T15:20:00.886Z,6.00
2023-03-05T15:22:27.658Z,6.00
2023-03-05T15:24:54.248Z,5.90
2023-03-05T15:27:20.889Z,6.00
2023-03-05T15:29:47.545Z,5.90
2023-03-05T15:32:14.213Z,6.00
2023-03-05T15:34:40.874Z,6.00
2023-03-05T15:37:07.950Z,5.80
2023-03-05T15:39:34.668Z,5.70
2023-03-05T15:42:01.327Z,5.70
2023-03-05T15:44:28.427Z,5.70
2023-03-05T15:46:56.770Z,5.60
2023-03-05T15:49:24.389Z,5.60
2023-03-05T15:51:51.242Z,5.60
2023-03-05T15:54:18.294Z,5.40
2023-03-05T15:56:44.975Z,5.60
2023-03-05T15:59:13.389Z,5.50
2023-03-05T16:01:40.932Z,5.30
2023-03-05T16:04:07.671Z,5.40
2023-03-05T16:06:34.576Z,5.40
2023-03-05T16:09:05.110Z,5.30
2023-03-05T16:11:36.270Z,5.20
2023-03-05T16:14:03.952Z,5.10
2023-03-05T16:16:32.279Z,5.10
2023-03-05T16:18:58.995Z,5.00
2023-03-05T16:21:25.727Z,5.10
2023-03-05T16:23:52.371Z,5.10
2023-03-05T16:26:19.168Z,5.00
2023-03-05T16:28:45.831Z,5.00
2023-03-05T16:31:12.860Z,4.90
2023-03-05T16:33:39.547Z,4.80
2023-03-05T16:36:25.980Z,4.80
2023-03-05T16:38:53.592Z,4.90
2023-03-05T16:41:23.171Z,4.90
2023-03-05T16:43:51.377Z,4.80
2023-03-05T16:46:18.138Z,4.80
2023-03-05T16:48:44.895Z,4.80
2023-03-05T16:51:12.849Z,4.70
2023-03-05T16:53:39.729Z,4.70
2023-03-05T16:56:07.591Z,4.70
2023-03-05T16:58:35.604Z,4.60
2023-03-05T17:01:02.485Z,4.60
2023-03-05T17:03:29.764Z,4.60
2023-03-05T17:06:07.819Z,4.60
2023-03-05T17:08:34.696Z,4.50
2023-03-05T17:11:01.551Z,4.50
2023-03-05T17:13:28.229Z,4.60
2023-03-05T17:15:57.042Z,4.60
2023-03-05T17:18:24.482Z,4.50
2023-03-05T17:20:51.570Z,4.60
2023-03-05T17:23:18.319Z,4.50
2023-03-05T17:25:45.299Z,4.50
2023-03-05T17:28:12.042Z,4.50
2023-03-05T17:30:39.242Z,4.50
2023-03-05T17:33:10.467Z,4.40
2023-03-05T17:35:37.328Z,4.40
2023-03-05T17:38:04.618Z,4.40
2023-03-05T17:40:31.547Z,4.40
2023-03-05T17:42:58.388Z,4.30
2023-03-05T17:45:25.442Z,4.30
2023-03-05T17:47:53.315Z,4.20
2023-03-05T17:50:20.237Z,4.20
2023-03-05T17:52:46.921Z,4.20
2023-03-05T17:55:15.666Z,4.20
2023-03-05T17:57:42.776Z,4.20
2023-03-05T18:00:15.445Z,4.20
2023-03-05T18:02:42.035Z,4.10
2023-03-05T18:05:09.422Z,4.10
2023-03-05T18:07:36.361Z,4.10
2023-03-05T18:10:03.443Z,4.10
2023-03-05T18:12:30.255Z,4.10
2023-03-05T18:14:56.983Z,4.10
2023-03-05T18:17:23.669Z,4.00
2023-03-05T18:19:50.975Z,4.00
2023-03-05T18:22:17.816Z,4.00
2023-03-05T18:24:44.465Z,4.00
2023-03-05T18:27:11.124Z,4.00
2023-03-05T18:29:39.622Z,4.00
2023-03-05T18:32:06.323Z,3.90
2023-03-05T18:34:33.010Z,3.90
2023-03-05T18:37:00.782Z,3.90
2023-03-05T18:39:29.302Z,3.80
2023-03-05T18:41:56.168Z,3.80
2023-03-05T18:44:23.079Z,3.80
2023-03-05T18:46:49.773Z,3.80
2023-03-05T18:49:16.435Z,3.80
2023-03-05T18:51:43.291Z,3.80
2023-03-05T18:54:10.813Z,3.80
2023-03-05T18:56:37.521Z,3.70
2023-03-05T18:59:04.344Z,3.70
2023-03-05T19:01:31.140Z,3.70
2023-03-05T19:03:58.219Z,3.70
2023-03-05T19:06:24.883Z,3.70
2023-03-05T19:08:56.979Z,3.70
2023-03-05T19:11:23.617Z,3.70
2023-03-05T19:13:50.942Z,3.70
2023-03-05T19:16:22.019Z,3.60
2023-03-05T19:19:02.331Z,3.60
2023-03-05T19:21:29.582Z,3.60
2023-03-05T19:23:56.293Z,3.60
2023-03-05T19:26:22.975Z,3.60
2023-03-05T19:28:49.679Z,3.60
2023-03-05T19:31:16.506Z,3.50
2023-03-05T19:33:43.233Z,3.50
2023-03-05T19:36:10.975Z,3.50
2023-03-05T19:38:37.801Z,3.50
2023-03-05T19:41:05.222Z,3.50
2023-03-05T19:43:32.214Z,3.50
2023-03-05T19:46:03.143Z,3.50
2023-03-05T19:48:30.204Z,3.50
2023-03-05T19:51:01.430Z,3.50
2023-03-05T19:53:28.061Z,3.50
2023-03-05T19:55:54.777Z,3.50
2023-03-05T19:58:21.717Z,3.50
2023-03-05T20:00:48.474Z,3.50
2023-03-05T20:03:22.008Z,3.40
2023-03-05T20:06:08.101Z,3.40
2023-03-05T20:09:08.028Z,3.40
2023-03-05T20:11:34.803Z,3.40
2023-03-05T20:14:01.494Z,3.40
2023-03-05T20:16:47.228Z,3.40
2023-03-05T20:19:16.913Z,3.40
2023-03-05T20:21:44.179Z,3.40
2023-03-05T20:24:12.601Z,3.30
2023-03-05T20:26:39.657Z,3.30
2023-03-05T20:29:06.511Z,3.30
2023-03-05T20:31:36.704Z,3.30
2023-03-05T20:34:08.155Z,3.30
2023-03-05T20:36:34.980Z,3.30
2023-03-05T20:44:01.872Z,3.30
2023-03-05T20:45:14.244Z,3.30
2023-03-05T20:47:46.158Z,3.30
2023-03-05T20:50:14.554Z,3.30
2023-03-05T20:52:41.235Z,3.20
2023-03-05T20:55:08.715Z,3.30
2023-03-05T20:57:35.338Z,3.30
2023-03-05T21:03:01.067Z,3.30
2023-03-05T21:05:34.320Z,3.20
2023-03-05T21:08:02.095Z,3.30
2023-03-05T21:14:13.364Z,3.20
2023-03-05T21:29:40.244Z,3.20
2023-03-05T21:52:22.350Z,3.10
2023-03-05T21:54:53.252Z,3.10
2023-03-05T21:57:22.720Z,3.10
2023-03-05T21:59:49.495Z,3.10
2023-03-05T22:02:19.928Z,3.10
2023-03-05T22:04:47.087Z,3.10
2023-03-05T22:07:14.342Z,3.00
2023-03-05T22:09:41.038Z,3.10
2023-03-05T22:12:10.160Z,3.00
2023-03-05T22:14:36.769Z,3.00
2023-03-05T22:17:03.730Z,3.00
2023-03-05T22:19:30.368Z,3.00
2023-03-05T22:21:57.637Z,3.00
2023-03-05T22:24:25.519Z,3.00
2023-03-05T22:26:58.506Z,3.00
2023-03-05T22:29:26.807Z,3.00
2023-03-05T22:31:56.673Z,3.00
2023-03-05T22:34:23.398Z,2.90
2023-03-05T22:36:50.021Z,2.90
2023-03-05T22:39:16.710Z,3.00
2023-03-05T22:41:46.465Z,3.00
2023-03-05T22:44:14.343Z,2.90
2023-03-05T22:50:00.352Z,2.90
2023-03-05T22:52:27.020Z,2.90
2023-03-05T22:54:55.959Z,2.90
2023-03-05T22:57:22.786Z,2.90
2023-03-05T22:59:49.819Z,2.90
2023-03-05T23:02:17.180Z,2.80
2023-03-05T23:04:49.926Z,2.80
2023-03-05T23:07:18.663Z,2.70
2023-03-05T23:09:45.427Z,2.60
2023-03-05T23:12:12.446Z,2.60
2023-03-05T23:14:39.121Z,2.60
2023-03-05T23:17:05.822Z,2.60
2023-03-05T23:19:39.550Z,2.60
2023-03-05T23:22:07.241Z,2.60
2023-03-05T23:24:34.335Z,2.60
2023-03-05T23:27:01.306Z,2.70
2023-03-05T23:29:30.451Z,2.70
2023-03-05T23:31:57.122Z,2.70
2023-03-05T23:34:23.719Z,2.70
2023-03-05T23:36:50.407Z,2.80
2023-03-05T23:39:17.035Z,2.70
2023-03-05T23:41:43.669Z,2.70
2023-03-05T23:44:11.297Z,2.70
2023-03-05T23:46:38.126Z,2.70
2023-03-05T23:49:04.831Z,2.70
2023-03-05T23:51:31.611Z,2.70
2023-03-05T23:53:58.329Z,2.70
2023-03-05T23:56:27.031Z,2.70
2023-03-05T23:58:56.101Z,2.70
